Terminal Aerodrome Forecast
Issued by NWS Goodland, KS

Home | Current Version | Previous Version | Text Only | Print | Product List | Glossary On
Versions: 1 2 3 4 5 6 7 8 9 10 11 12 13 14
000
FTUS43 KGLD 211733
TAFGLD
TAF
KGLD 211733Z 2118/2218 22013KT P6SM SCT100 SCT250
     FM220300 30016G27KT P6SM BKN060
      TEMPO 2204/2208 5SM -RA OVC050
     FM221000 32017G28KT P6SM SCT060 BKN100=

USA.gov is the U.S. government's official web portal to all federal, state and local government web resources and services.